Terminal Aerodrome Forecast
Issued by NWS Des Moines, IA

Home | Current Version | Previous Version | Text Only | Print | Product List | Glossary On
Versions: 1 2 3 4 5 6 7 8 9 10 11 12 13 14 15 16 17 18 19 20 21 22 23 24 25 26 27 28 29 30 31 32 33 34 35 36 37 38 39 40 41 42 43 44 45 46 47
000
FTUS43 KDMX 051151 AAA
TAFDSM
TAF AMD
KDSM 051151Z 0512/0612 18005KT 2SM -RA BR OVC004
      TEMPO 0512/0514 1/2SM -RA FG VV002
     FM051500 18007KT 5SM BR SCT015 OVC090
     FM051800 14007KT P6SM BKN040
     FM060200 14007KT P6SM SCT040 BKN120=

USA.gov is the U.S. government's official web portal to all federal, state and local government web resources and services.